Time;durP1;ratioP1;P1;durP2;ratioP2;P2;SDS_P1;SDS_P2;PMS_P1;PMS_P2;Temp;Humidity;BMP_temperature;BMP_pressure;BME280_temperature;BME280_humidity;BME280_pressure;Samples;Min_cycle;Max_cycle;Signal;HPM_P1;HPM_P2
2023/01/01 00:00:47;;;;;;;23.30;3.97;;;14.90;99.90;;;;;;4991003;28;20406;-84
2023/01/01 00:03:13;;;;;;;16.58;3.47;;;15.00;99.90;;;;;;4991234;28;20026;-84
2023/01/01 00:05:39;;;;;;;9.57;3.08;;;14.90;99.90;;;;;;4990252;28;20030;-84
2023/01/01 00:08:04;;;;;;;10.60;3.15;;;15.00;99.90;;;;;;4991022;28;20057;-84
2023/01/01 00:10:30;;;;;;;8.63;2.88;;;15.00;99.90;;;;;;4990255;28;20046;-85
2023/01/01 00:12:57;;;;;;;23.35;3.42;;;14.90;99.90;;;;;;4991492;28;20030;-84
2023/01/01 00:15:23;;;;;;;11.50;3.65;;;14.90;99.90;;;;;;4990857;28;20110;-84
2023/01/01 00:17:49;;;;;;;12.55;3.35;;;14.90;99.90;;;;;;4990756;28;20062;-83
2023/01/01 00:20:14;;;;;;;11.85;3.08;;;14.80;99.90;;;;;;4990027;28;20026;-84
2023/01/01 00:22:40;;;;;;;14.10;3.00;;;14.90;99.90;;;;;;4990330;28;20030;-83
2023/01/01 00:25:06;;;;;;;13.07;4.05;;;14.80;99.90;;;;;;4989719;28;20035;-84
2023/01/01 00:27:32;;;;;;;16.77;4.32;;;14.80;99.90;;;;;;4990863;28;20030;-84
2023/01/01 00:29:57;;;;;;;19.45;4.22;;;14.80;99.90;;;;;;4990486;28;20116;-87
2023/01/01 00:32:26;;;;;;;20.83;6.88;;;14.80;99.90;;;;;;4990447;28;20026;-83
2023/01/01 00:34:52;;;;;;;14.88;4.15;;;14.80;99.90;;;;;;4986299;28;20030;-83
2023/01/01 00:37:17;;;;;;;13.15;4.43;;;14.80;99.90;;;;;;4986028;28;20113;-85
2023/01/01 00:39:43;;;;;;;14.00;3.83;;;14.80;99.90;;;;;;4990485;28;20042;-84
2023/01/01 00:42:09;;;;;;;10.02;3.65;;;14.80;99.90;;;;;;4990805;28;20053;-83
2023/01/01 00:44:34;;;;;;;20.00;4.05;;;14.80;99.90;;;;;;4985930;28;20467;-84
2023/01/01 00:47:00;;;;;;;21.27;3.95;;;14.80;99.90;;;;;;4990569;28;20438;-85
2023/01/01 00:49:26;;;;;;;7.72;2.95;;;14.80;99.90;;;;;;4990815;28;20042;-82
2023/01/01 00:51:52;;;;;;;15.23;3.80;;;14.80;99.90;;;;;;4990469;28;20030;-88
2023/01/01 00:54:18;;;;;;;15.48;4.28;;;14.90;99.90;;;;;;4990913;28;20026;-84
2023/01/01 00:56:43;;;;;;;12.43;3.38;;;14.90;99.90;;;;;;4989078;28;20152;-84
2023/01/01 00:59:09;;;;;;;11.48;3.33;;;14.90;99.90;;;;;;4990695;28;20062;-85
2023/01/01 01:01:34;;;;;;;12.68;3.10;;;14.80;99.90;;;;;;4989673;28;20612;-84
2023/01/01 01:04:02;;;;;;;22.13;3.75;;;14.80;99.90;;;;;;4987617;28;20034;-85
2023/01/01 01:06:28;;;;;;;13.18;3.30;;;14.70;99.90;;;;;;4989415;28;20387;-84
2023/01/01 01:08:53;;;;;;;14.70;3.72;;;14.70;99.90;;;;;;4989772;28;20073;-83
2023/01/01 01:11:21;;;;;;;19.20;3.47;;;14.70;99.90;;;;;;4987920;28;20034;-84
2023/01/01 01:13:50;;;;;;;11.43;3.92;;;14.70;99.90;;;;;;4983745;28;20034;-84
2023/01/01 01:16:22;;;;;;;11.25;3.47;;;14.70;99.90;;;;;;4985565;28;20054;-84
2023/01/01 01:18:52;;;;;;;9.73;3.35;;;14.70;99.90;;;;;;4986350;28;20023;-83
2023/01/01 01:21:20;;;;;;;9.48;4.30;;;14.70;99.90;;;;;;4981851;28;20045;-84
2023/01/01 01:23:46;;;;;;;20.40;4.15;;;14.70;99.90;;;;;;4988867;28;20495;-83
2023/01/01 01:26:22;;;;;;;19.48;3.42;;;14.70;99.90;;;;;;4982535;28;20038;-84
2023/01/01 01:28:49;;;;;;;8.93;3.58;;;14.80;99.90;;;;;;4979093;28;20050;-88
2023/01/01 01:31:15;;;;;;;16.33;4.13;;;14.80;99.90;;;;;;4987979;28;20314;-84
2023/01/01 01:33:44;;;;;;;23.30;3.95;;;14.80;99.90;;;;;;4981230;28;20034;-84
2023/01/01 01:36:11;;;;;;;9.57;3.50;;;14.80;99.90;;;;;;4985491;28;20113;-83
2023/01/01 01:38:37;;;;;;;13.18;3.78;;;14.80;99.90;;;;;;4982223;28;20034;-84
2023/01/01 01:41:03;;;;;;;21.55;3.85;;;14.70;99.90;;;;;;4982560;28;20392;-84
2023/01/01 01:43:31;;;;;;;11.77;3.42;;;14.70;99.90;;;;;;4985329;28;20031;-83
2023/01/01 01:46:12;;;;;;;19.50;3.78;;;14.70;99.90;;;;;;4984414;28;20513;-85
2023/01/01 01:48:41;;;;;;;16.08;3.45;;;14.70;99.90;;;;;;4983351;28;20077;-84
2023/01/01 01:51:08;;;;;;;8.23;3.65;;;14.70;99.90;;;;;;4986538;28;20029;-84
2023/01/01 01:53:38;;;;;;;12.57;4.00;;;14.70;99.90;;;;;;4985485;28;20062;-84
2023/01/01 01:56:09;;;;;;;15.23;3.63;;;14.80;99.90;;;;;;4981701;28;20065;-84
2023/01/01 01:58:34;;;;;;;8.32;4.25;;;14.70;99.90;;;;;;4984206;28;20436;-84
2023/01/01 02:01:00;;;;;;;14.55;4.80;;;14.70;99.90;;;;;;4981581;28;20030;-85
2023/01/01 02:03:29;;;;;;;16.27;4.30;;;14.70;99.90;;;;;;4985601;28;20491;-85
2023/01/01 02:05:54;;;;;;;12.80;4.40;;;14.70;99.90;;;;;;4984216;28;20037;-83
2023/01/01 02:08:20;;;;;;;16.27;3.28;;;14.70;99.90;;;;;;4980439;28;20046;-84
2023/01/01 02:10:46;;;;;;;21.23;5.45;;;14.80;99.90;;;;;;4984215;28;20533;-85
2023/01/01 02:13:12;;;;;;;16.83;3.67;;;14.80;99.90;;;;;;4984900;28;20067;-84
2023/01/01 02:15:53;;;;;;;18.77;4.00;;;14.90;99.90;;;;;;4986243;28;20037;-85
2023/01/01 02:18:26;;;;;;;18.02;4.00;;;14.90;99.90;;;;;;4985093;28;20031;-85
2023/01/01 02:21:02;;;;;;;15.45;3.97;;;14.90;99.90;;;;;;4982127;28;21293;-85
2023/01/01 02:23:37;;;;;;;10.63;3.92;;;14.90;99.90;;;;;;4987582;28;20549;-83
2023/01/01 02:26:37;;;;;;;14.82;4.03;;;14.90;99.90;;;;;;4985330;28;20046;-86
2023/01/01 02:29:27;;;;;;;11.35;3.53;;;15.00;99.90;;;;;;4985983;28;20491;-85
2023/01/01 02:32:03;;;;;;;15.63;3.83;;;15.00;99.90;;;;;;4983295;28;20097;-85
2023/01/01 02:34:37;;;;;;;7.90;2.78;;;14.90;99.90;;;;;;4982331;28;20026;-84
2023/01/01 02:37:06;;;;;;;14.77;3.85;;;14.90;99.90;;;;;;4981160;28;20600;-84
2023/01/01 02:39:36;;;;;;;16.50;4.93;;;14.90;99.90;;;;;;4983915;28;20391;-85
2023/01/01 02:42:04;;;;;;;28.90;4.05;;;14.90;99.90;;;;;;4979590;28;20442;-84
2023/01/01 02:44:33;;;;;;;16.27;4.03;;;14.90;99.90;;;;;;4985128;28;20076;-85
2023/01/01 02:47:08;;;;;;;23.08;4.10;;;14.90;99.90;;;;;;4987724;28;20035;-84
2023/01/01 02:49:37;;;;;;;10.57;3.55;;;14.90;99.90;;;;;;4980832;28;20064;-84
2023/01/01 02:52:09;;;;;;;13.68;3.70;;;14.90;99.90;;;;;;4983314;28;20038;-87
2023/01/01 02:55:01;;;;;;;12.65;3.67;;;14.80;99.90;;;;;;4984986;28;20133;-84
2023/01/01 02:57:57;;;;;;;13.65;3.88;;;14.80;99.90;;;;;;4984186;28;20104;-85
2023/01/01 03:00:27;;;;;;;9.35;4.10;;;14.80;99.90;;;;;;4983670;28;20466;-84
2023/01/01 03:03:20;;;;;;;8.20;4.72;;;14.70;99.90;;;;;;4985115;28;20046;-85
2023/01/01 03:06:21;;;;;;;14.40;3.42;;;14.60;99.90;;;;;;4985958;28;20038;-85
2023/01/01 03:09:09;;;;;;;16.88;3.58;;;14.70;99.90;;;;;;4983400;28;20394;-84
2023/01/01 03:12:17;;;;;;;11.63;3.40;;;14.60;99.90;;;;;;4982604;28;20466;-85
2023/01/01 03:14:55;;;;;;;8.90;3.33;;;14.60;99.90;;;;;;4986756;28;20065;-86
2023/01/01 03:17:26;;;;;;;13.00;3.67;;;14.60;99.90;;;;;;4986067;28;20023;-84
2023/01/01 03:19:54;;;;;;;12.27;3.85;;;14.60;99.90;;;;;;4978404;28;20030;-83
2023/01/01 03:22:23;;;;;;;17.33;3.35;;;14.50;99.90;;;;;;4984721;28;20042;-84
2023/01/01 03:24:59;;;;;;;15.15;4.43;;;14.40;99.90;;;;;;4980710;28;20483;-85
2023/01/01 03:27:36;;;;;;;10.23;3.70;;;14.40;99.90;;;;;;4982694;28;20046;-84
2023/01/01 03:30:07;;;;;;;15.35;4.95;;;14.50;99.90;;;;;;4983762;28;20035;-84
2023/01/01 03:33:00;;;;;;;14.85;4.10;;;14.40;99.90;;;;;;4982740;28;20438;-84
2023/01/01 03:35:50;;;;;;;8.10;3.83;;;14.30;99.90;;;;;;4982255;28;20026;-84
2023/01/01 03:38:23;;;;;;;13.23;3.55;;;14.30;99.90;;;;;;4985891;28;20030;-84
2023/01/01 03:40:53;;;;;;;11.13;3.85;;;14.20;99.90;;;;;;4977208;28;20062;-84
2023/01/01 03:43:30;;;;;;;9.73;3.35;;;14.20;99.90;;;;;;4983059;28;20121;-84
2023/01/01 03:45:58;;;;;;;12.05;3.08;;;14.20;99.90;;;;;;4981382;28;20045;-84
2023/01/01 03:48:23;;;;;;;8.27;3.35;;;14.10;99.90;;;;;;4985422;28;20053;-84
2023/01/01 03:51:04;;;;;;;20.95;4.65;;;14.00;99.90;;;;;;4984818;28;20356;-86
2023/01/01 03:53:41;;;;;;;16.10;3.95;;;14.00;99.90;;;;;;4984658;28;20534;-89
2023/01/01 03:56:14;;;;;;;7.93;3.95;;;14.00;99.90;;;;;;4986868;28;20026;-84
2023/01/01 03:58:51;;;;;;;11.63;3.65;;;14.10;99.90;;;;;;4981567;28;20054;-83
2023/01/01 04:01:29;;;;;;;11.10;4.32;;;14.10;99.90;;;;;;4980520;28;20037;-85
2023/01/01 04:03:56;;;;;;;13.93;3.88;;;14.00;99.90;;;;;;4983745;28;20042;-84
2023/01/01 04:06:22;;;;;;;10.57;3.53;;;14.00;99.90;;;;;;4981096;28;20031;-84
2023/01/01 04:08:49;;;;;;;23.77;5.28;;;13.90;99.90;;;;;;4982678;28;20299;-85
2023/01/01 04:14:04;;;;;;;9.70;3.78;;;13.90;99.90;;;;;;4983480;28;20529;-84
2023/01/01 04:16:29;;;;;;;20.08;5.10;;;14.00;99.90;;;;;;4985199;28;20026;-84
2023/01/01 04:18:55;;;;;;;9.32;3.70;;;14.00;99.90;;;;;;4986148;28;20053;-84
2023/01/01 04:21:20;;;;;;;11.15;5.05;;;14.00;99.90;;;;;;4985673;28;20030;-84
2023/01/01 04:23:46;;;;;;;18.15;5.07;;;14.10;99.90;;;;;;4989496;28;20061;-86
2023/01/01 04:26:13;;;;;;;9.27;4.18;;;14.10;99.90;;;;;;4985512;28;20056;-83
2023/01/01 04:28:39;;;;;;;14.30;3.05;;;14.10;99.90;;;;;;4987568;28;20061;-84
2023/01/01 04:31:05;;;;;;;9.55;3.80;;;14.00;99.90;;;;;;4982404;28;20113;-84
2023/01/01 04:33:31;;;;;;;13.13;4.40;;;14.10;99.90;;;;;;4987344;28;20110;-84
2023/01/01 04:36:02;;;;;;;12.98;4.50;;;14.10;99.90;;;;;;4984710;28;20057;-83
2023/01/01 04:38:28;;;;;;;12.20;4.05;;;14.10;99.90;;;;;;4988881;28;20023;-84
2023/01/01 04:40:57;;;;;;;19.00;5.18;;;14.10;99.90;;;;;;4983421;28;20031;-83
2023/01/01 04:43:23;;;;;;;11.65;4.30;;;14.00;99.90;;;;;;4987050;28;20041;-83
2023/01/01 04:45:56;;;;;;;11.77;4.95;;;14.10;99.90;;;;;;4982879;28;20049;-84
2023/01/01 04:48:22;;;;;;;16.98;4.85;;;14.00;99.90;;;;;;4982480;28;20132;-83
2023/01/01 04:51:03;;;;;;;8.27;4.03;;;14.00;99.90;;;;;;4981625;28;20033;-85
2023/01/01 04:53:30;;;;;;;15.70;4.85;;;14.00;99.90;;;;;;4989254;28;20031;-83
2023/01/01 04:56:03;;;;;;;11.25;3.67;;;13.90;99.90;;;;;;4987431;28;20030;-83
2023/01/01 04:58:28;;;;;;;13.80;3.97;;;13.90;99.90;;;;;;4988054;28;20957;-84
2023/01/01 05:00:54;;;;;;;9.80;4.07;;;13.80;99.90;;;;;;4987113;28;20117;-83
2023/01/01 05:03:19;;;;;;;14.32;5.43;;;13.80;99.90;;;;;;4982818;28;20471;-85
2023/01/01 05:05:45;;;;;;;15.90;4.38;;;13.80;99.90;;;;;;4986230;28;20483;-85
2023/01/01 05:08:11;;;;;;;11.65;4.90;;;13.80;99.90;;;;;;4983988;28;20055;-85
2023/01/01 05:10:38;;;;;;;15.90;4.40;;;13.80;99.90;;;;;;4984439;28;20047;-82
2023/01/01 05:13:08;;;;;;;17.92;5.22;;;13.80;99.90;;;;;;4982209;28;20031;-85
2023/01/01 05:15:36;;;;;;;15.38;4.80;;;13.90;99.90;;;;;;4982978;28;20022;-83
2023/01/01 05:18:02;;;;;;;17.60;4.93;;;14.00;99.90;;;;;;4981842;28;20035;-84
2023/01/01 05:20:27;;;;;;;9.18;4.43;;;13.90;99.90;;;;;;4979476;28;20027;-83
2023/01/01 05:22:53;;;;;;;11.43;4.70;;;13.90;99.90;;;;;;4982505;28;20471;-83
2023/01/01 05:25:18;;;;;;;13.40;5.30;;;13.90;99.90;;;;;;4988782;28;20026;-84
2023/01/01 05:27:44;;;;;;;14.95;4.78;;;13.90;99.90;;;;;;4986496;28;20053;-84
2023/01/01 05:30:10;;;;;;;10.57;5.30;;;13.90;99.90;;;;;;4979296;28;20027;-83
2023/01/01 05:32:36;;;;;;;17.40;5.85;;;14.00;99.90;;;;;;4982399;28;20057;-83
2023/01/01 05:35:02;;;;;;;12.48;4.85;;;14.00;99.90;;;;;;4984181;28;20093;-90
2023/01/01 05:37:27;;;;;;;10.45;5.45;;;13.90;99.90;;;;;;4981342;28;20110;-84
2023/01/01 05:39:56;;;;;;;23.00;6.50;;;13.90;99.90;;;;;;4978498;28;20131;-83
2023/01/01 05:42:21;;;;;;;14.85;5.35;;;13.90;99.90;;;;;;4986292;28;20026;-84
2023/01/01 05:44:47;;;;;;;13.43;5.13;;;13.90;99.90;;;;;;4979758;28;20041;-84
2023/01/01 05:47:14;;;;;;;13.63;5.07;;;13.80;99.90;;;;;;4979819;28;20464;-85
2023/01/01 05:49:39;;;;;;;14.82;6.20;;;13.80;99.90;;;;;;4981259;28;20043;-83
2023/01/01 05:52:05;;;;;;;11.95;5.45;;;13.80;99.90;;;;;;4981887;28;20089;-84
2023/01/01 05:54:30;;;;;;;14.68;5.82;;;13.80;99.90;;;;;;4980963;28;20030;-84
2023/01/01 05:56:56;;;;;;;15.38;6.38;;;13.80;99.90;;;;;;4982367;28;20046;-84
2023/01/01 05:59:21;;;;;;;13.57;5.88;;;13.80;99.90;;;;;;4983831;28;20121;-86
2023/01/01 06:01:47;;;;;;;22.50;6.95;;;13.70;99.90;;;;;;4986498;28;20057;-83
2023/01/01 06:04:12;;;;;;;12.80;5.47;;;13.70;99.90;;;;;;4984711;28;20509;-84
2023/01/01 06:06:41;;;;;;;12.18;5.78;;;13.70;99.90;;;;;;4978347;28;20022;-82
2023/01/01 06:09:08;;;;;;;15.15;6.50;;;13.70;99.90;;;;;;4980425;28;20059;-85
2023/01/01 06:11:33;;;;;;;13.63;6.15;;;13.70;99.90;;;;;;4984471;28;20521;-84
2023/01/01 06:13:59;;;;;;;16.88;6.40;;;13.80;99.90;;;;;;4986536;28;20037;-85
2023/01/01 06:16:29;;;;;;;20.67;6.20;;;13.70;99.90;;;;;;4984002;28;20026;-83
2023/01/01 06:18:55;;;;;;;20.85;7.43;;;13.70;99.90;;;;;;4981029;28;20509;-85
2023/01/01 06:21:23;;;;;;;20.40;7.75;;;13.70;99.90;;;;;;4981633;28;20105;-85
2023/01/01 06:23:49;;;;;;;19.33;7.15;;;13.70;99.90;;;;;;4986960;28;20030;-85
2023/01/01 06:26:29;;;;;;;19.33;8.00;;;13.70;99.90;;;;;;4983901;28;20023;-85
2023/01/01 06:28:55;;;;;;;26.05;8.35;;;13.70;99.90;;;;;;4981162;28;20568;-84
2023/01/01 06:31:21;;;;;;;12.13;5.75;;;13.70;99.90;;;;;;4983637;28;20084;-86
2023/01/01 06:33:49;;;;;;;13.48;6.43;;;13.70;99.90;;;;;;4986235;28;20034;-86
2023/01/01 06:36:17;;;;;;;15.95;6.50;;;13.70;99.90;;;;;;4983394;28;20030;-84
2023/01/01 06:38:46;;;;;;;10.80;6.22;;;13.80;99.90;;;;;;4982263;28;20031;-86
2023/01/01 06:41:13;;;;;;;14.20;6.97;;;13.70;99.90;;;;;;4984607;28;20025;-85
2023/01/01 06:43:39;;;;;;;15.75;7.53;;;13.70;99.90;;;;;;4982258;28;20036;-86
2023/01/01 06:46:06;;;;;;;13.98;7.28;;;13.60;99.90;;;;;;4983695;28;20026;-82
2023/01/01 06:48:34;;;;;;;13.90;7.32;;;13.70;99.90;;;;;;4985792;28;20055;-84
2023/01/01 06:51:14;;;;;;;22.05;7.00;;;13.60;99.90;;;;;;4983919;28;20067;-84
2023/01/01 06:53:40;;;;;;;17.70;7.03;;;13.60;99.90;;;;;;4981541;28;20031;-84
2023/01/01 06:56:06;;;;;;;15.07;6.90;;;13.60;99.90;;;;;;4974207;28;20026;-84
2023/01/01 06:58:32;;;;;;;19.40;7.75;;;13.60;99.90;;;;;;4978091;28;20039;-84
2023/01/01 07:01:05;;;;;;;20.17;6.38;;;13.50;99.90;;;;;;4984863;28;20030;-84
2023/01/01 07:03:31;;;;;;;13.23;6.60;;;13.60;99.90;;;;;;4983465;28;20439;-85
2023/01/01 07:05:57;;;;;;;13.10;6.80;;;13.60;99.90;;;;;;4979949;28;20027;-83
2023/01/01 07:08:22;;;;;;;18.27;7.65;;;13.60;99.90;;;;;;4980111;28;20042;-83
2023/01/01 07:10:48;;;;;;;18.10;8.20;;;13.60;99.90;;;;;;4979666;28;20154;-83
2023/01/01 07:13:13;;;;;;;20.48;7.28;;;13.60;99.90;;;;;;4984915;28;20459;-83
2023/01/01 07:15:43;;;;;;;17.63;7.60;;;13.60;99.90;;;;;;4984532;28;20065;-84
2023/01/01 07:18:09;;;;;;;17.38;7.80;;;13.60;99.90;;;;;;4983668;28;20026;-83
2023/01/01 07:20:34;;;;;;;21.90;8.38;;;13.60;99.90;;;;;;4982421;28;20431;-88
2023/01/01 07:23:01;;;;;;;17.17;6.53;;;13.60;99.90;;;;;;4979811;28;20026;-84
2023/01/01 07:25:27;;;;;;;16.42;7.00;;;13.50;99.90;;;;;;4981282;28;20074;-83
2023/01/01 07:27:52;;;;;;;15.02;7.13;;;13.60;99.90;;;;;;4986011;28;20391;-85
2023/01/01 07:30:18;;;;;;;16.05;7.32;;;13.60;99.90;;;;;;4987574;28;20053;-84
2023/01/01 07:32:44;;;;;;;11.18;6.40;;;13.60;99.90;;;;;;4979692;28;20026;-82
2023/01/01 07:35:10;;;;;;;19.80;6.97;;;13.60;99.90;;;;;;4983241;28;20487;-85
2023/01/01 07:37:35;;;;;;;16.58;5.70;;;13.50;99.90;;;;;;4983559;28;20060;-84
2023/01/01 07:40:01;;;;;;;16.02;5.95;;;13.50;99.90;;;;;;4981791;28;20022;-84
2023/01/01 07:42:26;;;;;;;13.30;5.75;;;13.60;99.90;;;;;;4985982;28;20487;-83
2023/01/01 07:44:52;;;;;;;11.82;5.47;;;13.60;99.90;;;;;;4979511;28;20482;-83
2023/01/01 07:47:21;;;;;;;15.35;5.65;;;13.60;99.90;;;;;;4986354;28;20336;-84
2023/01/01 07:49:47;;;;;;;14.40;5.68;;;13.60;99.90;;;;;;4985630;28;20073;-84
2023/01/01 07:52:13;;;;;;;12.45;5.30;;;13.70;99.90;;;;;;4988525;28;20030;-86
2023/01/01 07:54:39;;;;;;;11.90;5.30;;;13.70;99.90;;;;;;4988038;28;20027;-84
2023/01/01 07:57:04;;;;;;;11.48;4.55;;;13.70;99.90;;;;;;4991240;28;20418;-83
2023/01/01 07:59:31;;;;;;;17.25;5.38;;;13.80;99.90;;;;;;4988870;28;20539;-84
2023/01/01 08:01:57;;;;;;;9.85;4.63;;;13.70;99.90;;;;;;4989963;28;20061;-84
2023/01/01 08:04:24;;;;;;;11.27;4.85;;;13.70;99.90;;;;;;4986919;28;20026;-85
2023/01/01 08:06:49;;;;;;;11.15;4.70;;;13.80;99.90;;;;;;4989328;28;20074;-85
2023/01/01 08:09:15;;;;;;;16.73;4.63;;;13.80;99.90;;;;;;4984093;28;20513;-85
2023/01/01 08:11:40;;;;;;;8.93;3.95;;;13.80;99.90;;;;;;4985833;28;20031;-88
2023/01/01 08:14:06;;;;;;;14.93;5.53;;;13.80;99.90;;;;;;4990562;28;20181;-84
2023/01/01 08:16:31;;;;;;;13.88;4.05;;;13.80;99.90;;;;;;4987023;28;20068;-88
2023/01/01 08:18:57;;;;;;;10.00;4.68;;;13.80;99.90;;;;;;4984068;28;20552;-84
2023/01/01 08:21:22;;;;;;;13.32;4.30;;;13.90;99.90;;;;;;4989593;28;20033;-87
2023/01/01 08:23:51;;;;;;;11.88;4.38;;;13.90;99.90;;;;;;4988528;28;20049;-83
2023/01/01 08:26:17;;;;;;;13.15;3.80;;;13.90;99.90;;;;;;4982838;28;20483;-85
2023/01/01 08:28:43;;;;;;;9.25;3.70;;;13.90;99.90;;;;;;4984794;28;20445;-85
2023/01/01 08:31:09;;;;;;;10.05;4.18;;;13.80;99.90;;;;;;4978670;28;20129;-85
2023/01/01 08:33:35;;;;;;;10.27;3.50;;;13.90;99.90;;;;;;4982897;28;20145;-84
2023/01/01 08:36:01;;;;;;;7.43;3.85;;;13.90;99.90;;;;;;4985263;28;20040;-83
2023/01/01 08:38:26;;;;;;;9.68;3.70;;;13.90;99.90;;;;;;4987361;28;20062;-85
2023/01/01 08:40:52;;;;;;;12.45;3.83;;;13.90;99.90;;;;;;4985388;28;20719;-84
2023/01/01 08:43:18;;;;;;;10.02;4.05;;;13.90;99.90;;;;;;4985178;28;20415;-84
2023/01/01 08:45:44;;;;;;;13.77;3.78;;;14.00;99.90;;;;;;4988541;28;20031;-86
2023/01/01 08:48:10;;;;;;;10.23;3.70;;;14.00;99.90;;;;;;4983224;28;20105;-84
2023/01/01 08:50:35;;;;;;;16.15;4.15;;;14.00;99.90;;;;;;4988009;28;20463;-86
2023/01/01 08:53:01;;;;;;;6.93;3.38;;;14.10;99.90;;;;;;4983140;28;20487;-85
2023/01/01 08:55:28;;;;;;;6.97;4.35;;;14.10;99.90;;;;;;4979225;28;20233;-86
2023/01/01 08:57:53;;;;;;;8.52;3.60;;;14.10;99.90;;;;;;4979499;28;20470;-85
2023/01/01 09:00:19;;;;;;;8.88;3.88;;;14.10;99.90;;;;;;4984022;28;20054;-83
2023/01/01 09:02:45;;;;;;;9.75;3.33;;;14.10;99.90;;;;;;4985997;28;20030;-84
2023/01/01 09:05:10;;;;;;;8.15;3.42;;;14.10;99.90;;;;;;4989182;28;20038;-84
2023/01/01 09:07:36;;;;;;;6.20;3.08;;;14.10;99.90;;;;;;4988367;28;20034;-87
2023/01/01 09:10:02;;;;;;;6.93;3.35;;;14.10;99.90;;;;;;4986407;28;20061;-85
2023/01/01 09:12:29;;;;;;;7.45;3.00;;;14.20;99.90;;;;;;4985593;28;20061;-81
2023/01/01 09:14:54;;;;;;;13.10;4.28;;;14.20;99.90;;;;;;4983058;28;20467;-85
2023/01/01 09:17:20;;;;;;;16.90;3.80;;;14.20;99.90;;;;;;4988130;28;20088;-84
2023/01/01 09:19:45;;;;;;;13.63;3.35;;;14.20;99.90;;;;;;4987702;28;20380;-88
2023/01/01 09:22:11;;;;;;;6.82;3.30;;;14.10;99.90;;;;;;4988864;28;20490;-85
2023/01/01 09:24:37;;;;;;;15.40;5.32;;;14.20;99.90;;;;;;4986648;28;20030;-86
2023/01/01 09:27:02;;;;;;;5.00;3.03;;;14.10;99.90;;;;;;4986732;28;20335;-84
2023/01/01 09:29:28;;;;;;;9.93;3.13;;;14.20;99.90;;;;;;4985890;28;20406;-84
2023/01/01 09:31:53;;;;;;;10.32;3.58;;;14.20;99.90;;;;;;4987858;28;20509;-84
2023/01/01 09:34:19;;;;;;;8.93;3.20;;;14.20;99.90;;;;;;4985702;28;20494;-85
2023/01/01 09:36:45;;;;;;;9.95;3.08;;;14.30;99.90;;;;;;4987689;28;20034;-86
2023/01/01 09:39:13;;;;;;;12.00;3.33;;;14.30;99.90;;;;;;4989152;28;20045;-85
2023/01/01 09:41:58;;;;;;;10.68;3.28;;;14.30;99.90;;;;;;4989255;28;20031;-86
2023/01/01 09:44:41;;;;;;;9.73;3.50;;;14.30;99.90;;;;;;4989545;28;20114;-85
2023/01/01 09:47:31;;;;;;;9.23;2.92;;;14.30;99.90;;;;;;4973994;28;20109;-83
2023/01/01 09:50:04;;;;;;;10.13;3.47;;;14.30;99.90;;;;;;4985925;28;20089;-84
2023/01/01 09:52:42;;;;;;;17.52;3.97;;;14.30;99.90;;;;;;4977383;28;20590;-83
2023/01/01 09:55:19;;;;;;;7.60;2.78;;;14.30;99.90;;;;;;4981804;28;20049;-85
2023/01/01 09:57:45;;;;;;;7.55;2.95;;;14.30;99.90;;;;;;4983903;28;20035;-83
2023/01/01 10:00:16;;;;;;;7.65;3.03;;;14.30;99.90;;;;;;4986529;28;20506;-84
2023/01/01 10:02:53;;;;;;;12.50;3.83;;;14.30;99.90;;;;;;4985227;28;20180;-86
2023/01/01 10:05:40;;;;;;;8.50;3.17;;;14.30;99.90;;;;;;4983718;28;20023;-83
2023/01/01 10:08:39;;;;;;;9.65;3.08;;;14.40;99.90;;;;;;4985592;28;20043;-84
2023/01/01 10:11:30;;;;;;;18.02;3.38;;;14.40;99.90;;;;;;4979900;28;20038;-86
2023/01/01 10:14:28;;;;;;;15.82;3.90;;;14.40;99.90;;;;;;4980048;28;20407;-88
2023/01/01 10:16:56;;;;;;;10.25;3.22;;;14.40;99.90;;;;;;4984519;28;20118;-84
2023/01/01 10:19:25;;;;;;;17.92;3.97;;;14.40;99.90;;;;;;4988300;28;20035;-85
2023/01/01 10:21:56;;;;;;;9.85;3.55;;;14.40;99.90;;;;;;4985676;28;20487;-85
2023/01/01 10:24:35;;;;;;;15.07;3.17;;;14.50;99.90;;;;;;4975980;28;20420;-86
2023/01/01 10:27:03;;;;;;;10.55;3.17;;;14.50;99.90;;;;;;4985065;28;20537;-87
2023/01/01 10:29:43;;;;;;;10.57;3.17;;;14.50;99.90;;;;;;4986404;28;20043;-83
2023/01/01 10:32:31;;;;;;;13.00;3.47;;;14.50;99.90;;;;;;4982626;28;20070;-86
2023/01/01 10:34:58;;;;;;;17.70;3.33;;;14.50;99.90;;;;;;4987457;28;20038;-84
2023/01/01 10:37:29;;;;;;;8.98;3.05;;;14.60;99.90;;;;;;4978872;28;20034;-86
2023/01/01 10:39:55;;;;;;;11.98;3.63;;;14.60;99.90;;;;;;4981096;28;20034;-84
2023/01/01 10:42:20;;;;;;;13.30;3.80;;;14.70;99.90;;;;;;4984075;28;20360;-85
2023/01/01 10:44:46;;;;;;;11.57;3.00;;;14.70;99.90;;;;;;4981024;28;20384;-86
2023/01/01 10:47:24;;;;;;;14.38;4.28;;;14.60;99.90;;;;;;4978788;28;20416;-83
2023/01/01 10:49:55;;;;;;;11.13;3.70;;;14.60;99.90;;;;;;4982988;28;20046;-85
2023/01/01 10:52:27;;;;;;;13.45;4.03;;;14.60;99.90;;;;;;4982782;28;20085;-84
2023/01/01 10:54:53;;;;;;;7.40;2.90;;;14.60;99.90;;;;;;4983260;28;20031;-85
2023/01/01 10:57:39;;;;;;;12.75;3.20;;;14.60;99.90;;;;;;4981087;28;20046;-83
2023/01/01 11:00:25;;;;;;;14.95;2.85;;;14.60;99.90;;;;;;4978349;28;20022;-84
2023/01/01 11:03:23;;;;;;;12.07;3.67;;;14.60;99.90;;;;;;4981468;28;20403;-85
2023/01/01 11:06:16;;;;;;;9.43;2.78;;;14.60;99.90;;;;;;4982397;28;20471;-84
2023/01/01 11:08:51;;;;;;;11.05;3.28;;;14.50;99.90;;;;;;4978732;28;20101;-90
2023/01/01 11:11:21;;;;;;;9.97;3.00;;;14.60;99.90;;;;;;4983111;28;20428;-84
2023/01/01 11:13:49;;;;;;;11.55;3.60;;;14.60;99.90;;;;;;4973126;28;20456;-83
2023/01/01 11:16:15;;;;;;;13.80;2.80;;;14.60;99.90;;;;;;4983737;28;20160;-83
2023/01/01 11:18:40;;;;;;;7.97;3.25;;;14.50;99.90;;;;;;4982619;28;20117;-85
2023/01/01 11:21:06;;;;;;;15.98;3.70;;;14.60;99.90;;;;;;4989206;28;20512;-85
2023/01/01 11:23:35;;;;;;;13.68;3.35;;;14.60;99.90;;;;;;4983054;28;20031;-84
2023/01/01 11:26:00;;;;;;;12.65;3.53;;;14.60;99.90;;;;;;4985456;28;20026;-83
2023/01/01 11:28:30;;;;;;;13.85;3.22;;;14.60;99.90;;;;;;4988773;28;20103;-82
2023/01/01 11:31:16;;;;;;;12.00;3.05;;;14.60;99.90;;;;;;4986145;28;20036;-84
2023/01/01 11:33:48;;;;;;;12.30;3.17;;;14.60;99.90;;;;;;4991101;28;20042;-83
2023/01/01 11:36:31;;;;;;;6.72;2.75;;;14.60;99.90;;;;;;4985420;28;20038;-88
2023/01/01 11:39:11;;;;;;;10.20;3.20;;;14.60;99.90;;;;;;4984524;28;20049;-86
2023/01/01 11:41:43;;;;;;;7.53;2.80;;;14.60;99.90;;;;;;4986106;28;20505;-86
2023/01/01 11:44:12;;;;;;;12.38;2.65;;;14.70;99.90;;;;;;4981064;28;20036;-82
2023/01/01 11:46:38;;;;;;;11.30;3.25;;;14.70;99.90;;;;;;4983746;28;20058;-83
2023/01/01 11:49:18;;;;;;;22.58;4.18;;;14.60;99.90;;;;;;4987815;28;20042;-83
2023/01/01 11:51:43;;;;;;;15.40;4.00;;;14.70;99.90;;;;;;4986804;28;20277;-84
2023/01/01 11:54:21;;;;;;;8.45;3.40;;;14.70;99.90;;;;;;4984365;28;20101;-84
2023/01/01 11:56:50;;;;;;;10.73;3.42;;;14.70;99.90;;;;;;4984523;28;20080;-84
2023/01/01 11:59:22;;;;;;;14.23;2.97;;;14.70;99.90;;;;;;4983461;28;20034;-84
2023/01/01 12:01:52;;;;;;;13.20;3.70;;;14.70;99.90;;;;;;4980171;28;20021;-85
2023/01/01 12:04:38;;;;;;;16.27;5.32;;;14.70;99.90;;;;;;4986549;28;20360;-85
2023/01/01 12:07:05;;;;;;;11.70;4.22;;;14.60;99.90;;;;;;4978835;28;20041;-83
2023/01/01 12:09:54;;;;;;;14.40;4.32;;;14.60;99.90;;;;;;4988557;28;20070;-85
2023/01/01 12:12:27;;;;;;;13.73;3.38;;;14.60;99.90;;;;;;4986376;28;20031;-84
2023/01/01 12:15:09;;;;;;;17.35;3.00;;;14.60;99.90;;;;;;4989651;28;20038;-85
2023/01/01 12:17:42;;;;;;;18.08;5.07;;;14.70;99.90;;;;;;4987058;28;20475;-85
2023/01/01 12:20:20;;;;;;;10.95;3.17;;;14.70;99.90;;;;;;4980434;28;20030;-89
2023/01/01 12:22:46;;;;;;;8.68;2.72;;;14.70;99.90;;;;;;4981281;28;20072;-85
2023/01/01 12:25:14;;;;;;;9.77;2.78;;;14.70;99.90;;;;;;4984321;28;20129;-84
2023/01/01 12:27:55;;;;;;;11.30;3.30;;;14.60;99.90;;;;;;4983413;28;20026;-85
2023/01/01 12:30:41;;;;;;;10.70;2.83;;;14.60;99.90;;;;;;4981218;28;21550;-84
2023/01/01 12:33:25;;;;;;;12.50;3.05;;;14.60;99.90;;;;;;4984967;28;20419;-83
2023/01/01 12:36:43;;;;;;;13.45;2.95;;;14.60;99.90;;;;;;4984223;28;20107;-84
2023/01/01 12:39:46;;;;;;;10.85;3.33;;;14.50;99.90;;;;;;4951805;28;20050;-83
2023/01/01 12:42:25;;;;;;;8.93;3.05;;;14.60;99.90;;;;;;4983400;28;20124;-84
2023/01/01 12:45:18;;;;;;;17.50;5.43;;;14.50;99.90;;;;;;4980258;28;20491;-83
2023/01/01 12:48:08;;;;;;;9.50;3.22;;;14.60;99.90;;;;;;4977593;28;20057;-87
2023/01/01 12:50:39;;;;;;;13.35;2.92;;;14.60;99.90;;;;;;4988445;28;20034;-84
2023/01/01 12:53:43;;;;;;;10.00;2.83;;;14.60;99.90;;;;;;4988554;28;20026;-84
2023/01/01 12:56:33;;;;;;;14.88;2.90;;;14.60;99.90;;;;;;4979014;28;20035;-85
2023/01/01 12:59:25;;;;;;;10.98;2.95;;;14.70;99.90;;;;;;4985789;28;20026;-84